Vosselaar, Belgium
Current Conditions -  °F | °C
As of 5:55 PM on Friday 28 Nov 2014 (Local Time) from EHGR Reporting Station
Haze Haze  
Wind Chill:   Ceiling: 11000
Heat Index:   Visibility: 6mi
Dew Point:   Wind: 14mph
Humidity: 82%   Direction: 100°E
Pressure: 29.8"   Gusts: NA
Location:  51.31°N, 4.89°E
Report Text: EHGR 281655Z AUTO 10012KT 9000 HZ OVC110 09/06 Q1009 BLU
Loading
Personal Weather Stations






























Interactive Weather Map New forecast layout! Learn more

10-Day Weather Forecast

Advertisements
Track Severe Weather on mobile